Time;durP1;ratioP1;P1;durP2;ratioP2;P2;SDS_P1;SDS_P2;PMS_P1;PMS_P2;Temp;Humidity;BMP_temperature;BMP_pressure;BME280_temperature;BME280_humidity;BME280_pressure;Samples;Min_cycle;Max_cycle;Signal;HPM_P1;HPM_P2
2022/09/12 00:01:28;;;;;;;1.98;0.80;;;;;;;23.27;53.77;100718.41;1730432;81;21015;-56
2022/09/12 00:03:58;;;;;;;0.40;0.40;;;;;;;23.27;54.01;100717.09;1730807;81;21007;-56
2022/09/12 00:06:35;;;;;;;0.42;0.33;;;;;;;23.26;53.78;100720.72;1730476;81;21487;-55
2022/09/12 00:09:11;;;;;;;1.35;0.50;;;;;;;23.23;53.66;100732.41;1727854;81;20991;-54
2022/09/12 00:11:39;;;;;;;0.45;0.40;;;;;;;23.21;53.77;100738.78;1730652;81;21515;-55
2022/09/12 00:14:07;;;;;;;0.88;0.60;;;;;;;23.18;53.69;100731.06;1730383;81;21613;-55
2022/09/12 00:16:36;;;;;;;0.40;0.40;;;;;;;23.17;53.63;100732.01;1730653;81;21503;-54
2022/09/12 00:19:04;;;;;;;0.50;0.50;;;;;;;23.15;53.81;100736.59;1730652;81;21051;-57
2022/09/12 00:21:33;;;;;;;0.50;0.40;;;;;;;23.15;53.78;100733.93;1730544;81;21736;-57
2022/09/12 00:24:00;;;;;;;1.52;0.50;;;;;;;23.15;54.02;100736.59;1732564;81;20999;-53
2022/09/12 00:26:26;;;;;;;1.57;0.45;;;;;;;23.15;53.91;100737.44;1735713;81;21019;-54
2022/09/12 00:28:53;;;;;;;0.93;0.55;;;;;;;23.16;53.96;100747.08;1706936;81;21023;-56
2022/09/12 00:31:25;;;;;;;0.65;0.55;;;;;;;23.18;53.87;100748.31;1735818;81;21019;-57
2022/09/12 00:33:54;;;;;;;0.53;0.50;;;;;;;23.15;53.60;100741.89;1735885;81;20987;-54
2022/09/12 00:36:23;;;;;;;0.40;0.40;;;;;;;23.13;53.51;100737.18;1735934;81;20983;-54
2022/09/12 00:38:51;;;;;;;1.10;0.60;;;;;;;23.11;53.56;100734.65;1735876;81;21019;-54
2022/09/12 00:41:22;;;;;;;1.00;0.80;;;;;;;23.10;53.18;100734.77;1735913;81;20992;-57
2022/09/12 00:43:53;;;;;;;0.63;0.50;;;;;;;23.08;52.91;100732.70;1670814;86;21104;-54
2022/09/12 00:46:45;;;;;;;1.37;1.27;;;;;;;23.05;53.06;100725.81;1530174;94;21135;-55
2022/09/12 00:49:27;;;;;;;0.82;0.70;;;;;;;23.04;53.23;100733.89;1530015;94;21616;-56
2022/09/12 00:51:58;;;;;;;0.90;0.90;;;;;;;23.04;53.64;100747.16;1530846;94;21102;-55
2022/09/12 00:54:29;;;;;;;0.50;0.50;;;;;;;23.03;53.71;100740.14;1530935;94;21065;-59
2022/09/12 00:56:58;;;;;;;0.50;0.50;;;;;;;23.02;53.61;100746.43;1530995;93;21161;-54
2022/09/12 00:59:30;;;;;;;0.90;0.80;;;;;;;23.00;53.73;100735.91;1530838;94;21053;-54
2022/09/12 01:01:57;;;;;;;0.50;0.50;;;;;;;23.01;53.93;100738.09;1530541;94;21069;-54
2022/09/12 01:04:25;;;;;;;0.57;0.57;;;;;;;23.00;53.96;100737.73;1530608;94;21076;-54
2022/09/12 01:06:51;;;;;;;1.15;0.60;;;;;;;23.00;53.96;100741.72;1530641;94;21158;-54
2022/09/12 01:09:21;;;;;;;0.60;0.60;;;;;;;23.00;54.07;100743.04;1530539;94;21152;-54
2022/09/12 01:11:48;;;;;;;0.60;0.60;;;;;;;23.01;54.06;100747.38;1530601;93;21149;-56
2022/09/12 01:14:16;;;;;;;0.50;0.50;;;;;;;23.03;53.94;100749.44;1531081;94;21085;-54
2022/09/12 01:16:44;;;;;;;0.60;0.60;;;;;;;23.04;53.93;100749.81;1530742;93;21127;-56
2022/09/12 01:19:46;;;;;;;0.55;0.55;;;;;;;23.06;54.15;100750.55;1530812;94;21064;-54
2022/09/12 01:22:51;;;;;;;1.85;0.60;;;;;;;23.07;54.37;100754.89;1530870;94;21073;-56
2022/09/12 01:25:41;;;;;;;0.50;0.50;;;;;;;23.10;54.68;100749.37;1537403;93;21100;-54
2022/09/12 01:28:31;;;;;;;1.25;0.55;;;;;;;23.11;54.49;100747.92;1538822;93;21601;-56
2022/09/12 01:31:26;;;;;;;0.62;0.62;;;;;;;23.12;54.19;100747.45;1535133;93;21242;-55
2022/09/12 01:34:07;;;;;;;0.75;0.65;;;;;;;23.13;54.07;100747.80;1539251;93;21161;-57
2022/09/12 01:36:48;;;;;;;0.60;0.60;;;;;;;23.11;54.05;100745.27;1539173;93;21129;-59
2022/09/12 01:39:41;;;;;;;1.05;0.70;;;;;;;23.12;54.12;100747.45;1539279;93;21112;-55
2022/09/12 01:42:28;;;;;;;1.50;0.70;;;;;;;23.12;54.19;100742.96;1481912;95;21143;-54
2022/09/12 01:45:21;;;;;;;0.70;0.70;;;;;;;23.13;54.33;100749.13;1450877;99;21179;-61
2022/09/12 01:47:52;;;;;;;0.57;0.57;;;;;;;23.13;54.54;100739.36;1479931;95;21104;-55
2022/09/12 01:50:21;;;;;;;;;;;;;;;23.15;54.65;100739.23;1524880;94;21092;-54
2022/09/12 01:53:07;;;;;;;0.70;0.70;;;;;;;23.14;54.67;100742.88;1526717;92;20143;-55
2022/09/12 01:55:47;;;;;;;0.70;0.70;;;;;;;23.14;54.80;100744.20;1527850;92;21600;-53
2022/09/12 01:58:27;;;;;;;0.62;0.62;;;;;;;23.13;54.91;100741.16;1523872;92;21096;-54
2022/09/12 02:01:08;;;;;;;0.80;0.80;;;;;;;23.13;55.02;100738.50;1531943;92;21152;-54
2022/09/12 02:03:45;;;;;;;0.88;0.88;;;;;;;23.14;54.92;100742.88;1531603;92;21120;-57
2022/09/12 02:06:18;;;;;;;0.60;0.60;;;;;;;23.12;55.04;100739.48;1531885;92;21096;-55
2022/09/12 02:09:12;;;;;;;0.80;0.80;;;;;;;23.12;55.25;100748.77;1491254;95;21124;-53
2022/09/12 02:11:41;;;;;;;0.90;0.90;;;;;;;23.12;55.44;100750.09;1473555;96;21158;-54
2022/09/12 02:14:19;;;;;;;0.93;0.78;;;;;;;23.12;55.50;100748.77;1491284;95;21100;-54
2022/09/12 02:16:49;;;;;;;1.00;0.90;;;;;;;23.13;55.57;100751.78;1491400;96;21080;-59
2022/09/12 02:19:23;;;;;;;0.80;0.80;;;;;;;23.12;55.75;100744.28;1528468;91;21562;-53
2022/09/12 02:21:59;;;;;;;0.78;0.78;;;;;;;23.14;55.92;100738.89;1552526;90;21076;-53
2022/09/12 02:24:38;;;;;;;1.10;1.00;;;;;;;23.13;56.10;100732.72;1580792;89;21696;-53
2022/09/12 02:27:13;;;;;;;0.90;0.90;;;;;;;23.14;56.33;100730.42;1577384;91;21105;-58
2022/09/12 02:29:41;;;;;;;0.70;0.70;;;;;;;23.15;56.42;100731.28;1581792;91;21080;-53
2022/09/12 02:32:42;;;;;;;1.52;0.85;;;;;;;23.17;56.62;100739.97;1581643;90;21075;-55
2022/09/12 02:35:14;;;;;;;1.77;1.00;;;;;;;23.18;56.72;100736.38;1581922;91;21570;-55
2022/09/12 02:38:12;;;;;;;1.12;0.75;;;;;;;23.19;56.92;100742.89;1573546;91;21096;-54
2022/09/12 02:40:39;;;;;;;0.70;0.70;;;;;;;23.21;57.08;100750.73;1532280;93;21057;-53
2022/09/12 02:43:05;;;;;;;1.17;1.07;;;;;;;23.23;57.11;100746.16;1517333;93;21160;-53
2022/09/12 02:45:33;;;;;;;1.22;1.12;;;;;;;23.23;57.06;100752.79;1517784;93;21097;-54
2022/09/12 02:48:08;;;;;;;1.07;0.90;;;;;;;23.23;57.10;100751.46;1515311;93;21069;-53
2022/09/12 02:50:35;;;;;;;1.22;1.07;;;;;;;23.24;56.87;100751.84;1515629;93;21600;-53
2022/09/12 02:53:06;;;;;;;1.00;1.00;;;;;;;23.24;56.64;100745.21;1518980;93;21089;-56
2022/09/12 02:55:34;;;;;;;0.98;0.98;;;;;;;23.23;56.53;100746.16;1518137;93;21085;-56
2022/09/12 02:58:01;;;;;;;1.57;0.85;;;;;;;23.21;56.29;100742.30;1520330;93;21561;-60
2022/09/12 03:00:31;;;;;;;0.80;0.80;;;;;;;23.20;56.13;100744.59;1518526;93;21085;-54
2022/09/12 03:03:06;;;;;;;1.20;1.10;;;;;;;23.19;56.18;100746.02;1517425;93;21091;-56
2022/09/12 03:05:50;;;;;;;1.22;1.12;;;;;;;23.20;56.29;100749.05;1501891;95;21130;-55
2022/09/12 03:08:40;;;;;;;1.35;1.15;;;;;;;23.24;56.07;100748.72;1487955;96;21129;-53
2022/09/12 03:11:42;;;;;;;1.00;1.00;;;;;;;23.27;56.04;100750.27;1395333;102;21130;-55
2022/09/12 03:14:29;;;;;;;1.80;1.15;;;;;;;23.25;55.88;100747.74;1427073;101;21194;-55
2022/09/12 03:17:30;;;;;;;1.65;1.25;;;;;;;23.23;55.93;100745.68;1425966;101;21179;-53
2022/09/12 03:20:14;;;;;;;1.20;1.10;;;;;;;23.22;55.95;100740.49;1445073;99;21124;-55
2022/09/12 03:22:52;;;;;;;0.98;0.98;;;;;;;23.22;55.97;100737.84;1436230;99;21245;-53
2022/09/12 03:25:33;;;;;;;1.67;1.07;;;;;;;23.20;55.97;100740.61;1441302;99;21205;-54
2022/09/12 03:28:07;;;;;;;1.10;0.78;;;;;;;23.17;56.00;100735.52;1445268;99;21151;-53
2022/09/12 03:30:46;;;;;;;0.90;0.90;;;;;;;23.18;55.95;100744.34;1445359;99;21109;-53
2022/09/12 03:33:15;;;;;;;0.80;0.72;;;;;;;23.17;56.02;100746.14;1415978;101;21119;-56
2022/09/12 03:35:42;;;;;;;1.45;0.85;;;;;;;23.17;55.99;100745.28;1415963;100;21142;-53
2022/09/12 03:38:09;;;;;;;0.98;0.88;;;;;;;23.16;55.91;100746.26;1454165;96;21119;-55
2022/09/12 03:40:37;;;;;;;2.85;0.88;;;;;;;23.15;55.76;100749.86;1467882;96;21592;-60
2022/09/12 03:43:05;;;;;;;1.12;0.70;;;;;;;23.13;55.25;100752.63;1491233;94;21123;-55
2022/09/12 03:45:32;;;;;;;0.80;0.80;;;;;;;23.12;54.95;100748.77;1515194;94;21101;-57
2022/09/12 03:47:58;;;;;;;1.22;1.00;;;;;;;23.10;54.87;100752.84;1514355;94;21069;-54
2022/09/12 03:50:25;;;;;;;1.10;0.80;;;;;;;23.10;54.72;100754.67;1513902;94;21093;-51
2022/09/12 03:52:52;;;;;;;0.80;0.80;;;;;;;23.09;54.56;100748.98;1513808;94;21171;-52
2022/09/12 03:55:18;;;;;;;0.95;0.95;;;;;;;23.08;54.62;100751.28;1514015;93;21118;-52
2022/09/12 03:57:45;;;;;;;0.80;0.80;;;;;;;23.08;54.74;100751.28;1514020;94;21087;-51
2022/09/12 04:00:12;;;;;;;2.05;1.15;;;;;;;23.08;54.77;100745.98;1514703;94;21507;-55
2022/09/12 04:02:39;;;;;;;1.10;1.00;;;;;;;23.08;54.83;100748.13;1515568;93;21096;-53
2022/09/12 04:05:08;;;;;;;1.12;1.02;;;;;;;23.10;54.71;100744.05;1527086;93;21122;-53
2022/09/12 04:07:35;;;;;;;0.90;0.90;;;;;;;23.09;54.56;100750.31;1579585;88;21543;-52
2022/09/12 04:10:03;;;;;;;3.20;1.10;;;;;;;23.08;54.29;100749.45;1617716;88;21079;-53
2022/09/12 04:12:30;;;;;;;1.27;0.88;;;;;;;23.07;54.16;100749.11;1612884;88;21040;-51
2022/09/12 04:14:57;;;;;;;1.20;1.10;;;;;;;23.08;54.12;100753.94;1630535;85;21092;-52
2022/09/12 04:17:23;;;;;;;1.00;1.00;;;;;;;23.08;54.12;100750.78;1632894;85;21123;-53
2022/09/12 04:19:50;;;;;;;1.02;1.02;;;;;;;23.09;54.22;100753.82;1619936;86;21069;-51
2022/09/12 04:22:17;;;;;;;1.25;1.15;;;;;;;23.09;54.31;100754.30;1619873;86;21125;-51
2022/09/12 04:24:43;;;;;;;2.02;1.90;;;;;;;23.11;54.53;100759.00;1617256;86;21114;-56
2022/09/12 04:27:10;;;;;;;2.05;1.82;;;;;;;23.11;54.47;100760.34;1609931;87;21516;-53
2022/09/12 04:29:37;;;;;;;1.40;1.30;;;;;;;23.10;54.29;100763.46;1609246;87;21051;-54
2022/09/12 04:32:04;;;;;;;1.27;1.20;;;;;;;23.11;54.28;100770.95;1607176;87;21090;-56
2022/09/12 04:34:31;;;;;;;1.50;1.40;;;;;;;23.11;54.24;100770.95;1607377;87;21112;-53
2022/09/12 04:36:57;;;;;;;1.45;1.35;;;;;;;23.12;54.34;100771.33;1685557;82;21022;-56
2022/09/12 04:39:24;;;;;;;1.65;1.17;;;;;;;23.12;54.30;100773.99;1711075;82;21034;-60
2022/09/12 04:41:51;;;;;;;1.72;1.25;;;;;;;23.14;54.40;100773.40;1710853;84;21529;-57
2022/09/12 04:44:17;;;;;;;1.57;1.47;;;;;;;23.16;54.50;100782.09;1711268;82;21042;-56
2022/09/12 04:46:45;;;;;;;1.10;1.00;;;;;;;23.18;54.56;100776.19;1710862;82;21077;-52
2022/09/12 04:49:13;;;;;;;1.15;1.05;;;;;;;23.20;54.54;100778.25;1710940;82;21030;-53
2022/09/12 04:51:41;;;;;;;1.15;1.12;;;;;;;23.21;54.44;100776.80;1711000;82;21600;-51
2022/09/12 04:54:11;;;;;;;1.77;1.40;;;;;;;23.23;54.31;100779.34;1710854;82;21055;-53
2022/09/12 04:56:40;;;;;;;2.40;1.20;;;;;;;23.24;54.29;100773.08;1650116;87;21052;-52
2022/09/12 04:59:07;;;;;;;1.95;1.20;;;;;;;23.26;54.25;100776.47;1650029;85;21053;-53
2022/09/12 05:01:34;;;;;;;1.35;1.20;;;;;;;23.28;54.26;100781.19;1649760;85;21028;-52
2022/09/12 05:04:02;;;;;;;1.20;1.10;;;;;;;23.30;54.34;100789.41;1649992;85;21001;-57
2022/09/12 05:06:33;;;;;;;2.40;1.35;;;;;;;23.34;54.46;100791.39;1650099;86;20977;-52
2022/09/12 05:09:00;;;;;;;1.42;1.32;;;;;;;23.47;54.17;100790.86;1650101;85;22005;-51
2022/09/12 05:11:30;;;;;;;1.32;1.20;;;;;;;23.51;54.12;100785.69;1649858;85;21560;-56
2022/09/12 05:13:57;;;;;;;1.70;1.50;;;;;;;23.53;54.04;100790.39;1650151;86;21076;-52
2022/09/12 05:16:24;;;;;;;1.55;1.22;;;;;;;23.55;54.09;100780.50;1649944;87;21009;-53
2022/09/12 05:18:51;;;;;;;1.92;1.30;;;;;;;23.57;54.07;100781.23;1650013;87;21037;-55
2022/09/12 05:21:20;;;;;;;1.20;1.20;;;;;;;23.58;54.15;100778.93;1649984;87;21016;-54
2022/09/12 05:23:49;;;;;;;1.67;1.57;;;;;;;23.59;54.23;100777.98;1649860;87;21121;-52
2022/09/12 05:26:16;;;;;;;2.27;1.50;;;;;;;23.61;54.20;100778.71;1630232;87;21092;-53
2022/09/12 05:28:42;;;;;;;3.37;1.60;;;;;;;23.63;54.18;100778.11;1629050;87;21063;-53
2022/09/12 05:31:15;;;;;;;1.52;1.42;;;;;;;23.64;54.17;100778.97;1629097;88;21072;-51
2022/09/12 05:33:43;;;;;;;;;;;;;;;23.64;54.22;100778.47;1603276;88;21024;-54
2022/09/12 05:36:16;;;;;;;1.50;1.40;;;;;;;23.67;54.28;100776.92;1601135;90;20147;-52
2022/09/12 05:38:43;;;;;;;4.67;2.10;;;;;;;23.67;54.34;100776.92;1601009;90;21052;-52
2022/09/12 05:41:14;;;;;;;1.70;1.60;;;;;;;23.67;54.35;100782.70;1600978;90;21080;-52
2022/09/12 05:43:41;;;;;;;1.67;1.57;;;;;;;23.67;54.45;100784.89;1601278;90;21073;-52
2022/09/12 05:46:11;;;;;;;5.47;1.55;;;;;;;23.67;54.33;100786.22;1600827;90;21552;-54
2022/09/12 05:48:39;;;;;;;2.05;1.85;;;;;;;23.67;54.36;100776.92;1600887;90;21103;-54
2022/09/12 05:51:30;;;;;;;1.85;1.75;;;;;;;23.68;54.32;100778.59;1600766;88;21076;-56
2022/09/12 05:53:59;;;;;;;1.60;1.50;;;;;;;23.69;53.88;100767.02;1608908;88;21093;-54
2022/09/12 05:56:28;;;;;;;1.80;1.70;;;;;;;23.65;53.68;100770.88;1570846;90;21045;-52
2022/09/12 05:59:00;;;;;;;3.27;2.20;;;;;;;23.62;53.75;100763.13;1570525;90;21505;-54
2022/09/12 06:01:29;;;;;;;2.10;2.00;;;;;;;23.59;53.47;100754.08;1570638;90;21574;-52
2022/09/12 06:03:59;;;;;;;2.30;2.10;;;;;;;23.56;53.46;100755.62;1566097;90;21057;-53
2022/09/12 06:06:28;;;;;;;2.65;2.45;;;;;;;23.51;53.69;100747.17;1545471;93;21071;-52
2022/09/12 06:08:58;;;;;;;4.20;2.25;;;;;;;23.48;53.74;100751.37;1558897;92;21132;-56
2022/09/12 06:11:27;;;;;;;2.30;2.20;;;;;;;23.44;53.99;100749.43;1570753;91;21070;-53
2022/09/12 06:13:56;;;;;;;2.67;2.30;;;;;;;23.39;54.03;100744.93;1570683;90;21020;-52
2022/09/12 06:16:26;;;;;;;3.35;2.27;;;;;;;23.37;54.31;100747.33;1570662;90;21511;-54
2022/09/12 06:19:01;;;;;;;2.87;2.40;;;;;;;23.36;54.58;100743.85;1522031;94;21531;-54
2022/09/12 06:21:30;;;;;;;3.20;3.00;;;;;;;;;;1467236;96;21233;-54
2022/09/12 06:26:25;;;;;;;3.17;2.85;;;;;;;23.37;54.83;100740.69;1432060;99;21203;-53
2022/09/12 06:28:53;;;;;;;2.92;2.55;;;;;;;23.42;55.10;100741.20;1454080;99;21613;-53
2022/09/12 06:31:24;;;;;;;2.98;2.40;;;;;;;23.47;55.05;100749.69;1442559;98;21121;-52
2022/09/12 06:33:53;;;;;;;2.90;2.70;;;;;;;23.51;54.60;100751.16;1424715;99;21199;-53
2022/09/12 06:36:23;;;;;;;2.65;2.45;;;;;;;23.55;54.35;100759.25;1428191;100;21176;-52
2022/09/12 06:38:58;;;;;;;3.10;2.80;;;;;;;23.59;54.33;100758.06;1453605;98;21568;-56
2022/09/12 06:41:25;;;;;;;3.30;3.00;;;;;;;23.64;54.20;100756.39;1419725;101;21173;-57
2022/09/12 06:43:52;;;;;;;3.45;2.55;;;;;;;23.67;53.69;100754.34;1418217;101;21161;-52
2022/09/12 06:46:18;;;;;;;2.65;2.45;;;;;;;23.71;53.54;100757.12;1437928;99;21141;-54
2022/09/12 06:48:45;;;;;;;2.60;2.40;;;;;;;23.74;53.37;100753.40;1419329;101;21121;-57
2022/09/12 06:51:14;;;;;;;3.30;3.00;;;;;;;23.77;53.46;100754.00;1417980;101;21235;-52
2022/09/12 06:53:43;;;;;;;3.00;2.65;;;;;;;23.81;53.12;100757.26;1414637;100;21127;-52
2022/09/12 06:56:18;;;;;;;5.25;2.75;;;;;;;23.83;53.39;100756.66;1431469;100;21161;-53
2022/09/12 06:58:45;;;;;;;3.95;2.45;;;;;;;23.87;53.30;100758.97;1431287;100;21179;-59
2022/09/12 07:01:19;;;;;;;2.77;2.58;;;;;;;23.89;53.25;100758.84;1431353;100;21169;-53
2022/09/12 07:03:54;;;;;;;3.25;2.58;;;;;;;23.92;53.22;100755.49;1431302;100;21125;-52
2022/09/12 07:06:25;;;;;;;3.33;2.50;;;;;;;23.96;53.22;100756.95;1431488;100;21181;-55
2022/09/12 07:08:52;;;;;;;2.60;2.40;;;;;;;24.00;52.65;100762.39;1427841;100;21155;-55
2022/09/12 07:11:23;;;;;;;3.55;2.40;;;;;;;24.01;52.54;100764.55;1430887;100;21195;-52
2022/09/12 07:13:53;;;;;;;2.33;2.22;;;;;;;24.03;52.35;100770.14;1431762;100;21167;-51
2022/09/12 07:16:22;;;;;;;2.83;2.62;;;;;;;24.01;52.11;100762.73;1459187;96;21632;-53
2022/09/12 07:19:01;;;;;;;2.67;2.40;;;;;;;24.02;52.25;100766.25;1506983;94;21090;-51
2022/09/12 07:21:28;;;;;;;2.90;2.70;;;;;;;24.00;52.16;100758.41;1516377;94;21046;-54
2022/09/12 07:23:59;;;;;;;2.75;2.45;;;;;;;24.00;52.13;100769.04;1515426;94;21111;-52
2022/09/12 07:26:28;;;;;;;3.42;2.87;;;;;;;24.00;52.41;100773.02;1515833;94;21127;-54
2022/09/12 07:28:55;;;;;;;2.90;2.60;;;;;;;23.97;52.36;100779.03;1514508;93;21080;-60
2022/09/12 07:31:23;;;;;;;6.50;3.08;;;;;;;23.94;52.53;100786.78;1544808;92;21190;-53
2022/09/12 07:33:50;;;;;;;7.50;2.75;;;;;;;23.91;52.55;100783.02;1579677;90;21467;-52
2022/09/12 07:36:18;;;;;;;2.37;2.17;;;;;;;23.90;52.59;100778.69;1579868;90;21111;-52
2022/09/12 07:38:45;;;;;;;3.15;2.67;;;;;;;23.89;52.58;100779.63;1621947;87;21032;-56
2022/09/12 07:41:20;;;;;;;2.87;2.67;;;;;;;23.88;52.41;100781.94;1649481;83;21056;-53
2022/09/12 07:43:47;;;;;;;2.52;2.12;;;;;;;23.87;52.10;100777.58;1717839;83;21075;-52
2022/09/12 07:46:14;;;;;;;2.62;2.42;;;;;;;23.85;52.12;100770.20;1717678;83;21007;-54
2022/09/12 07:48:40;;;;;;;2.80;2.60;;;;;;;23.86;52.35;100773.72;1717494;83;21527;-56
2022/09/12 07:51:09;;;;;;;2.25;2.12;;;;;;;23.87;52.41;100765.62;1700377;83;21029;-54
2022/09/12 07:53:39;;;;;;;2.35;2.15;;;;;;;23.88;52.21;100764.67;1700520;83;21529;-53
2022/09/12 07:56:09;;;;;;;1.98;1.87;;;;;;;23.90;51.51;100764.55;1700522;83;21044;-52
2022/09/12 07:58:36;;;;;;;2.50;2.30;;;;;;;23.91;51.21;100767.08;1700764;83;21028;-52
2022/09/12 08:01:05;;;;;;;2.12;1.92;;;;;;;23.95;51.26;100757.90;1700756;83;21485;-52
2022/09/12 08:03:32;;;;;;;2.30;2.10;;;;;;;24.01;50.94;100758.75;1700788;83;21095;-54
2022/09/12 08:06:10;;;;;;;2.22;2.05;;;;;;;24.06;50.97;100752.64;1700467;83;21054;-51
2022/09/12 08:08:38;;;;;;;2.42;2.27;;;;;;;24.11;50.76;100750.45;1696529;83;21007;-55
2022/09/12 08:11:08;;;;;;;2.40;2.20;;;;;;;24.16;50.50;100742.98;1700574;83;21063;-57
2022/09/12 08:13:38;;;;;;;2.40;2.20;;;;;;;24.20;50.33;100748.42;1655990;86;21021;-52
2022/09/12 08:16:07;;;;;;;3.12;2.27;;;;;;;24.23;50.41;100753.48;1664559;85;21605;-56
2022/09/12 08:18:35;;;;;;;;;;;;;;;24.27;49.97;100751.93;1658608;86;21603;-57
2022/09/12 08:21:06;;;;;;;2.50;2.30;;;;;;;24.28;49.86;100750.98;1657883;86;20169;-54
2022/09/12 08:23:33;;;;;;;2.10;2.00;;;;;;;24.28;50.09;100750.98;1653858;86;21588;-54
2022/09/12 08:26:05;;;;;;;2.40;2.20;;;;;;;24.27;50.13;100756.77;1654914;86;21057;-52
2022/09/12 08:28:34;;;;;;;2.15;2.00;;;;;;;24.29;50.19;100757.97;1645411;86;21025;-52
2022/09/12 08:31:05;;;;;;;4.33;2.35;;;;;;;24.33;50.08;100762.09;1656881;85;21593;-52
2022/09/12 08:33:32;;;;;;;2.12;1.85;;;;;;;24.34;50.14;100763.28;1656651;85;21037;-54
2022/09/12 08:36:09;;;;;;;3.10;2.08;;;;;;;24.37;49.98;100767.05;1655988;85;21538;-52
2022/09/12 08:38:38;;;;;;;2.10;1.92;;;;;;;24.40;49.95;100766.79;1663973;85;21057;-53
2022/09/12 08:41:37;;;;;;;2.08;1.90;;;;;;;24.46;49.97;100766.30;1653773;86;21057;-52
2022/09/12 08:44:54;;;;;;;2.20;1.60;;;;;;;24.52;49.98;100765.00;1601919;89;21051;-54
2022/09/12 08:47:41;;;;;;;4.60;1.80;;;;;;;24.59;49.91;100765.70;1601296;89;21071;-59
2022/09/12 08:50:16;;;;;;;2.77;2.05;;;;;;;24.67;49.71;100769.93;1601504;89;21108;-53
2022/09/12 08:55:32;;;;;;;2.02;1.82;;;;;;;24.78;49.04;100763.78;1559908;91;21124;-57
2022/09/12 08:58:14;;;;;;;2.83;2.17;;;;;;;24.83;48.77;100769.59;1545166;93;21058;-52
2022/09/12 09:01:07;;;;;;;1.85;1.70;;;;;;;24.85;48.50;100764.48;1517447;94;21652;-53
2022/09/12 09:04:27;;;;;;;3.42;1.80;;;;;;;24.89;48.22;100763.78;1539918;92;21556;-56
2022/09/12 09:07:22;;;;;;;1.65;1.55;;;;;;;24.91;48.18;100761.36;1557637;91;21065;-55
2022/09/12 09:10:08;;;;;;;4.87;1.90;;;;;;;24.97;48.34;100764.00;1561402;92;21113;-60
2022/09/12 09:13:03;;;;;;;1.60;1.50;;;;;;;25.02;48.29;100761.79;1577172;90;21427;-56
2022/09/12 09:15:57;;;;;;;2.37;1.62;;;;;;;25.06;47.83;100768.55;1551128;90;21097;-54
2022/09/12 09:18:28;;;;;;;4.85;1.77;;;;;;;25.07;47.66;100767.60;1522568;94;21046;-61
2022/09/12 09:21:32;;;;;;;1.77;1.67;;;;;;;25.13;47.86;100764.91;1492493;95;21121;-60
2022/09/12 09:24:04;;;;;;;3.77;1.70;;;;;;;25.14;47.46;100766.14;1489341;95;21093;-54
2022/09/12 09:26:40;;;;;;;1.70;1.60;;;;;;;25.17;47.13;100765.87;1471652;96;21164;-54
2022/09/12 09:29:15;;;;;;;1.62;1.52;;;;;;;25.19;46.97;100767.92;1452666;99;21119;-55
2022/09/12 09:31:42;;;;;;;1.55;1.45;;;;;;;25.23;46.91;100762.70;1435742;99;21643;-61
2022/09/12 09:34:20;;;;;;;1.72;1.57;;;;;;;25.25;46.60;100762.09;1486227;96;21107;-54
2022/09/12 09:37:08;;;;;;;1.85;1.55;;;;;;;25.28;46.53;100766.33;1457315;98;21107;-54
2022/09/12 09:39:52;;;;;;;3.12;1.35;;;;;;;25.31;46.70;100765.58;1385073;104;21156;-54
2022/09/12 09:42:31;;;;;;;1.87;1.20;;;;;;;25.33;46.18;100760.97;1373471;104;21238;-54
2022/09/12 09:44:59;;;;;;;1.67;1.57;;;;;;;25.36;46.15;100756.73;1357895;106;21159;-59
2022/09/12 09:47:26;;;;;;;1.50;1.37;;;;;;;25.39;45.96;100756.47;1384462;104;21217;-54
2022/09/12 09:49:52;;;;;;;1.72;1.40;;;;;;;25.43;45.71;100755.27;1353845;106;21235;-53
2022/09/12 09:52:24;;;;;;;1.45;1.27;;;;;;;25.46;45.99;100752.84;1390271;102;21195;-59
2022/09/12 09:54:56;;;;;;;;;;;;;;;25.47;45.74;100748.70;1389424;103;21597;-55
2022/09/12 09:57:38;;;;;;;1.90;1.17;;;;;;;25.51;45.85;100752.80;1382433;104;20149;-54
2022/09/12 10:00:30;;;;;;;1.55;1.40;;;;;;;25.54;45.59;100761.03;1352898;106;21658;-52
2022/09/12 10:03:30;;;;;;;2.30;1.52;;;;;;;25.57;46.35;100761.65;1383726;104;21124;-54
2022/09/12 10:06:06;;;;;;;3.10;1.12;;;;;;;25.60;46.47;100765.38;1355367;105;21216;-54
2022/09/12 10:08:35;;;;;;;1.30;1.20;;;;;;;25.57;45.99;100764.79;1363090;105;21633;-54
2022/09/12 10:11:11;;;;;;;4.10;1.20;;;;;;;25.52;45.44;100763.84;1372732;105;21160;-52
2022/09/12 10:13:41;;;;;;;1.47;1.05;;;;;;;25.49;45.46;100773.91;1385273;103;21172;-53
2022/09/12 10:16:26;;;;;;;;;;;;;;;25.47;45.26;100775.86;1445545;95;21096;-51
2022/09/12 10:19:02;;;;;;;2.45;0.80;;;;;;;25.49;45.30;100782.73;1497877;96;20108;-52
2022/09/12 10:21:46;;;;;;;1.30;1.05;;;;;;;25.52;44.97;100782.48;1510208;94;21162;-58
2022/09/12 10:24:25;;;;;;;0.82;0.80;;;;;;;25.55;44.59;100779.58;1507137;94;21613;-55
2022/09/12 10:27:15;;;;;;;1.00;0.90;;;;;;;25.62;44.83;100782.55;1510645;94;21062;-52
2022/09/12 10:29:46;;;;;;;1.32;0.90;;;;;;;25.66;44.68;100786.17;1510522;94;21074;-54
2022/09/12 10:32:28;;;;;;;;;;;;;;;25.71;44.13;100779.98;1512643;94;21139;-56
2022/09/12 10:34:59;;;;;;;0.80;0.80;;;;;;;25.74;43.84;100781.05;1495271;94;20137;-54
2022/09/12 10:37:32;;;;;;;1.30;1.20;;;;;;;25.77;43.72;100780.80;1486230;94;21630;-54
2022/09/12 10:40:00;;;;;;;1.12;1.02;;;;;;;25.82;43.45;100785.75;1482009;95;21088;-55
2022/09/12 10:42:52;;;;;;;1.50;1.12;;;;;;;25.88;43.55;100785.70;1484416;95;21116;-52
2022/09/12 10:45:36;;;;;;;3.40;1.00;;;;;;;25.93;43.62;100778.15;1483274;96;21066;-53
2022/09/12 10:48:23;;;;;;;1.72;1.00;;;;;;;25.98;43.72;100782.61;1485601;96;21100;-59
2022/09/12 10:50:50;;;;;;;0.70;0.70;;;;;;;25.99;43.52;100783.81;1501237;94;21110;-51
2022/09/12 10:53:41;;;;;;;0.93;0.90;;;;;;;26.01;43.40;100787.70;1497608;95;21100;-52
2022/09/12 10:56:13;;;;;;;1.15;0.93;;;;;;;26.03;43.10;100783.08;1496997;94;21092;-52
2022/09/12 10:59:27;;;;;;;1.07;0.98;;;;;;;26.09;43.35;100778.59;1499593;95;21183;-56
2022/09/12 11:02:22;;;;;;;1.10;1.00;;;;;;;26.09;43.35;100778.59;1503196;94;21107;-54
2022/09/12 11:05:35;;;;;;;1.07;1.02;;;;;;;26.17;42.92;100782.77;1469774;96;21074;-54
2022/09/12 11:08:13;;;;;;;0.75;0.75;;;;;;;26.17;42.92;100782.77;1491558;95;21087;-55
2022/09/12 11:11:00;;;;;;;0.93;0.88;;;;;;;26.18;43.05;100777.30;1489943;95;21540;-55
2022/09/12 11:14:19;;;;;;;1.25;0.80;;;;;;;26.22;42.33;100781.87;1425411;100;21135;-59
2022/09/12 11:17:15;;;;;;;0.80;0.80;;;;;;;26.20;42.02;100779.83;1440624;99;21120;-54
2022/09/12 11:20:06;;;;;;;0.80;0.80;;;;;;;26.13;41.74;100779.50;1437904;99;21059;-55
2022/09/12 11:22:53;;;;;;;1.52;0.95;;;;;;;26.04;42.22;100774.94;1417547;101;21098;-58
2022/09/12 11:25:31;;;;;;;1.22;0.82;;;;;;;26.00;41.99;100784.66;1416259;101;21094;-52
2022/09/12 11:28:26;;;;;;;1.12;1.02;;;;;;;25.93;42.31;100791.00;1415531;100;21092;-54
2022/09/12 11:31:11;;;;;;;1.37;1.20;;;;;;;25.82;43.42;100795.90;1482482;96;21131;-58
2022/09/12 11:33:48;;;;;;;2.47;1.55;;;;;;;25.82;43.42;100795.90;1477531;96;21111;-54
2022/09/12 11:36:29;;;;;;;1.27;1.17;;;;;;;25.73;43.42;100790.03;1528899;92;21089;-57
2022/09/12 11:39:03;;;;;;;1.30;1.20;;;;;;;25.73;43.42;100790.03;1535757;93;21603;-58
2022/09/12 11:41:39;;;;;;;2.10;1.47;;;;;;;25.72;43.50;100791.47;1535453;92;21071;-58
2022/09/12 11:44:17;;;;;;;1.90;1.45;;;;;;;25.73;43.29;100787.36;1535620;92;21083;-52
2022/09/12 11:46:43;;;;;;;3.05;1.47;;;;;;;25.79;43.89;100784.18;1498376;94;21069;-55
2022/09/12 11:49:15;;;;;;;2.10;1.87;;;;;;;25.84;44.11;100789.95;1492422;95;21121;-54
2022/09/12 11:52:22;;;;;;;1.90;1.45;;;;;;;25.88;43.65;100783.89;1513720;94;21100;-54
2022/09/12 11:55:01;;;;;;;1.37;1.25;;;;;;;25.93;43.71;100794.14;1534157;93;21044;-54
2022/09/12 11:57:43;;;;;;;2.77;1.70;;;;;;;25.89;43.26;100784.23;1541998;93;21080;-54
2022/09/12 12:00:22;;;;;;;2.20;1.60;;;;;;;25.89;43.26;100784.23;1542099;93;21661;-55
2022/09/12 12:03:29;;;;;;;2.87;1.50;;;;;;;25.87;43.05;100782.67;1541759;93;21104;-52
2022/09/12 12:08:46;;;;;;;1.50;1.40;;;;;;;25.88;42.63;100789.23;1500644;95;21113;-61
2022/09/12 12:11:17;;;;;;;2.80;1.92;;;;;;;25.86;43.61;100787.66;1495112;95;21246;-54